Time;durP1;ratioP1;P1;durP2;ratioP2;P2;SDS_P1;SDS_P2;PMS_P1;PMS_P2;Temp;Humidity;BMP_temperature;BMP_pressure;BME280_temperature;BME280_humidity;BME280_pressure;Samples;Min_cycle;Max_cycle;Signal;HPM_P1;HPM_P2
2022/12/18 00:01:36;;;;;;;85.28;33.55;;;-2.00;99.90;;;;;;5029242;28;20148;-67
2022/12/18 00:04:05;;;;;;;77.53;31.58;;;-1.90;99.90;;;;;;5031112;28;20478;-67
2022/12/18 00:06:32;;;;;;;80.50;33.42;;;-1.90;99.90;;;;;;5032109;28;20029;-67
2022/12/18 00:09:00;;;;;;;74.50;33.00;;;-2.00;99.90;;;;;;5032288;28;20032;-67
2022/12/18 00:11:28;;;;;;;79.35;31.50;;;-2.10;99.90;;;;;;5031460;28;20037;-66
2022/12/18 00:13:55;;;;;;;78.15;31.63;;;-2.00;99.90;;;;;;5032328;28;20038;-67
2022/12/18 00:16:22;;;;;;;82.47;34.03;;;-2.10;99.90;;;;;;5031751;28;20505;-67
2022/12/18 00:18:50;;;;;;;80.00;32.65;;;-2.10;99.90;;;;;;5030988;28;20553;-67
2022/12/18 00:21:16;;;;;;;79.15;31.00;;;-2.00;99.90;;;;;;5032271;28;20037;-67
2022/12/18 00:23:44;;;;;;;76.13;31.65;;;-2.10;99.90;;;;;;5031023;28;20033;-67
2022/12/18 00:26:15;;;;;;;79.30;31.55;;;-2.20;99.90;;;;;;5029033;28;20032;-66
2022/12/18 00:28:42;;;;;;;75.00;32.67;;;-2.10;99.90;;;;;;5031936;28;20482;-67
2022/12/18 00:31:10;;;;;;;72.60;31.08;;;-2.10;99.90;;;;;;5031173;28;20100;-67
2022/12/18 00:33:36;;;;;;;77.05;31.25;;;-2.10;99.90;;;;;;5031196;28;20098;-67
2022/12/18 00:36:17;;;;;;;66.15;29.45;;;-2.20;99.90;;;;;;5031130;28;20378;-67
2022/12/18 00:38:43;;;;;;;77.18;29.55;;;-2.30;99.90;;;;;;5032683;28;20393;-66
2022/12/18 00:41:10;;;;;;;81.72;32.42;;;-2.40;99.90;;;;;;5029691;28;20037;-67
2022/12/18 00:43:37;;;;;;;70.45;30.38;;;-2.40;99.90;;;;;;5030686;28;20025;-67
2022/12/18 00:46:04;;;;;;;74.78;29.50;;;-2.40;99.90;;;;;;5031778;28;20568;-67
2022/12/18 00:48:30;;;;;;;76.70;30.90;;;-2.40;99.90;;;;;;5031556;28;20032;-67
2022/12/18 00:50:56;;;;;;;75.15;30.23;;;-2.30;99.90;;;;;;5031399;28;20025;-67
2022/12/18 00:53:22;;;;;;;71.53;29.48;;;-2.40;99.90;;;;;;5032047;28;20037;-67
2022/12/18 00:55:47;;;;;;;76.95;29.40;;;-2.40;99.90;;;;;;5031025;28;20041;-66
2022/12/18 00:58:15;;;;;;;69.85;29.75;;;-2.40;99.90;;;;;;5030581;28;20091;-66
2022/12/18 01:00:41;;;;;;;71.32;28.23;;;-2.50;99.90;;;;;;5030532;28;20022;-67
2022/12/18 01:03:07;;;;;;;71.75;30.25;;;-2.50;99.90;;;;;;5031129;28;20525;-67
2022/12/18 01:05:33;;;;;;;80.97;32.47;;;-2.60;99.90;;;;;;5031674;28;20175;-67
2022/12/18 01:07:58;;;;;;;71.82;28.90;;;-2.60;99.90;;;;;;5030872;28;20040;-67
2022/12/18 01:10:25;;;;;;;72.72;29.05;;;-2.60;99.90;;;;;;5031438;28;20033;-66
2022/12/18 01:12:50;;;;;;;74.50;30.00;;;-2.60;99.90;;;;;;5031438;28;20435;-67
2022/12/18 01:15:16;;;;;;;69.90;29.13;;;-2.60;99.90;;;;;;5029677;28;20132;-66
2022/12/18 01:17:42;;;;;;;77.38;30.08;;;-2.60;99.90;;;;;;5030125;28;20032;-66
2022/12/18 01:20:10;;;;;;;73.00;30.73;;;-2.70;99.90;;;;;;5030139;28;20513;-67
2022/12/18 01:22:36;;;;;;;67.07;27.83;;;-2.70;99.90;;;;;;5032169;28;20028;-67
2022/12/18 01:25:03;;;;;;;70.88;28.35;;;-2.70;99.90;;;;;;5030750;28;20056;-67
2022/12/18 01:27:28;;;;;;;69.18;27.45;;;-2.80;99.90;;;;;;5029773;28;20084;-66
2022/12/18 01:29:54;;;;;;;67.43;25.77;;;-2.80;99.90;;;;;;5030810;28;20521;-66
2022/12/18 01:32:20;;;;;;;67.78;27.17;;;-2.80;99.90;;;;;;5031008;28;20548;-66
2022/12/18 01:34:46;;;;;;;69.63;27.80;;;-2.80;99.90;;;;;;5030523;28;20033;-67
2022/12/18 01:37:11;;;;;;;70.72;28.67;;;-2.80;99.90;;;;;;5030222;28;20104;-67
2022/12/18 01:39:37;;;;;;;69.18;27.42;;;-2.90;99.90;;;;;;5030903;28;20104;-67
2022/12/18 01:42:03;;;;;;;70.35;27.58;;;-3.00;99.90;;;;;;5029707;28;20029;-66
2022/12/18 01:45:01;;;;;;;59.30;24.60;;;-3.00;99.90;;;;;;5030310;28;20026;-66
2022/12/18 01:47:32;;;;;;;69.50;27.25;;;-3.10;99.90;;;;;;5029686;28;20102;-65
2022/12/18 01:50:01;;;;;;;67.97;26.83;;;-3.10;99.90;;;;;;5029848;28;20021;-67
2022/12/18 01:52:30;;;;;;;61.03;26.13;;;-3.00;99.90;;;;;;5027191;28;20493;-66
2022/12/18 01:54:56;;;;;;;64.75;26.30;;;-3.00;99.90;;;;;;5029214;28;20026;-66
2022/12/18 01:57:24;;;;;;;64.25;25.88;;;-3.00;99.90;;;;;;5029272;28;20041;-67
2022/12/18 01:59:53;;;;;;;62.95;25.63;;;-3.00;99.90;;;;;;5029023;28;20425;-66
2022/12/18 02:02:20;;;;;;;75.90;24.88;;;-3.00;99.90;;;;;;5028741;28;20026;-66
2022/12/18 02:04:46;;;;;;;62.67;25.08;;;-3.00;99.90;;;;;;5029587;28;20061;-66
2022/12/18 02:07:24;;;;;;;53.53;24.70;;;-3.10;99.90;;;;;;5029960;28;22523;-66
2022/12/18 02:10:24;;;;;;;59.72;22.83;;;-3.00;99.90;;;;;;5029388;28;20026;-66
2022/12/18 02:13:11;;;;;;;55.83;21.80;;;-3.00;99.90;;;;;;5027074;28;20367;-67
2022/12/18 02:16:07;;;;;;;58.80;22.77;;;-3.00;99.90;;;;;;5030115;28;20082;-66
2022/12/18 02:18:38;;;;;;;51.40;22.80;;;-3.00;99.90;;;;;;5028589;28;20236;-66
2022/12/18 02:21:31;;;;;;;57.63;24.30;;;-3.00;99.90;;;;;;5029747;28;20577;-66
2022/12/18 02:24:25;;;;;;;53.88;22.27;;;-3.00;99.90;;;;;;5028582;28;20029;-66
2022/12/18 02:26:56;;;;;;;56.08;21.67;;;-3.00;99.90;;;;;;5029126;28;20108;-66
2022/12/18 02:29:27;;;;;;;56.95;22.38;;;-3.00;99.90;;;;;;5028873;28;20045;-67
2022/12/18 02:31:57;;;;;;;58.25;22.85;;;-3.00;99.90;;;;;;5029297;28;20379;-66
2022/12/18 02:34:27;;;;;;;53.90;22.13;;;-3.00;99.90;;;;;;5028916;28;20025;-66
2022/12/18 02:36:54;;;;;;;51.35;21.75;;;-3.00;99.90;;;;;;5029125;28;20033;-66
2022/12/18 02:39:21;;;;;;;49.30;21.80;;;-3.00;99.90;;;;;;5029828;28;20021;-66
2022/12/18 02:41:48;;;;;;;50.85;21.50;;;-3.00;99.90;;;;;;5027377;28;20029;-66
2022/12/18 02:44:14;;;;;;;49.72;22.20;;;-3.00;99.90;;;;;;5027036;28;20029;-66
2022/12/18 02:46:44;;;;;;;53.78;21.73;;;-3.00;99.90;;;;;;5029925;28;20386;-66
2022/12/18 02:49:24;;;;;;;53.15;21.52;;;-3.00;99.90;;;;;;5028485;28;20059;-66
2022/12/18 02:52:00;;;;;;;50.85;21.15;;;-3.00;99.90;;;;;;5026172;28;20095;-66
2022/12/18 02:54:43;;;;;;;59.03;23.33;;;-3.10;99.90;;;;;;5026742;28;20083;-66
2022/12/18 02:57:29;;;;;;;;;;;-3.10;99.90;;;;;;5029518;28;20024;-66
2022/12/18 02:59:58;;;;;;;53.63;21.17;;;-3.10;99.90;;;;;;5027347;28;19917;-66
2022/12/18 03:02:40;;;;;;;47.05;21.42;;;-3.10;99.90;;;;;;5028072;28;20116;-67
2022/12/18 03:05:15;;;;;;;50.92;22.38;;;-3.10;99.90;;;;;;5029012;28;20497;-66
2022/12/18 03:08:00;;;;;;;46.72;21.83;;;-3.20;99.90;;;;;;5028139;28;20121;-66
2022/12/18 03:10:32;;;;;;;47.47;22.85;;;-3.20;99.90;;;;;;5028943;28;20386;-66
2022/12/18 03:13:08;;;;;;;51.63;22.40;;;-3.20;99.90;;;;;;5028349;28;20045;-66
2022/12/18 03:15:56;;;;;;;51.25;22.58;;;-3.30;99.90;;;;;;5027831;28;20041;-66
2022/12/18 03:18:30;;;;;;;52.75;22.08;;;-3.30;99.90;;;;;;5026000;28;20033;-66
2022/12/18 03:21:00;;;;;;;52.97;22.40;;;-3.20;99.90;;;;;;5033559;28;20031;-66
2022/12/18 03:23:30;;;;;;;46.75;22.75;;;-3.20;99.90;;;;;;5030089;28;20140;-66
2022/12/18 03:26:00;;;;;;;51.00;22.02;;;-3.20;99.90;;;;;;5032285;28;20029;-66
2022/12/18 03:28:31;;;;;;;50.50;22.85;;;-3.30;99.90;;;;;;5035565;28;20022;-66
2022/12/18 03:31:00;;;;;;;54.08;23.73;;;-3.30;99.90;;;;;;5032846;28;20093;-66
2022/12/18 03:33:52;;;;;;;48.50;22.15;;;-3.30;99.90;;;;;;5033083;28;20095;-66
2022/12/18 03:36:18;;;;;;;47.33;21.73;;;-3.30;99.90;;;;;;5032334;28;20029;-66
2022/12/18 03:38:44;;;;;;;48.80;20.13;;;-3.20;99.90;;;;;;5040782;28;20063;-66
2022/12/18 03:41:27;;;;;;;58.97;23.92;;;-3.10;99.90;;;;;;5039973;28;20026;-66
2022/12/18 03:44:07;;;;;;;51.00;22.25;;;-3.10;99.90;;;;;;5037233;28;20037;-66
2022/12/18 03:46:48;;;;;;;52.17;21.75;;;-3.20;99.90;;;;;;5044227;28;20029;-66
2022/12/18 03:49:20;;;;;;;49.22;22.13;;;-3.20;99.90;;;;;;5036976;28;20424;-66
2022/12/18 03:52:02;;;;;;;46.60;20.45;;;-3.10;99.90;;;;;;5040482;28;20085;-66
2022/12/18 03:54:30;;;;;;;47.95;20.70;;;-3.00;99.90;;;;;;5041719;28;20060;-66
2022/12/18 03:57:11;;;;;;;49.90;21.88;;;-3.00;99.90;;;;;;5039590;28;20028;-66
2022/12/18 03:59:39;;;;;;;42.15;19.90;;;-3.10;99.90;;;;;;5038627;28;20428;-66
2022/12/18 04:02:07;;;;;;;47.38;20.10;;;-3.00;99.90;;;;;;5039919;28;20018;-66
2022/12/18 04:04:34;;;;;;;48.47;20.75;;;-3.10;99.90;;;;;;5046509;28;20405;-66
2022/12/18 04:07:01;;;;;;;46.58;20.90;;;-3.10;99.90;;;;;;5057562;28;20092;-65
2022/12/18 04:09:28;;;;;;;48.50;20.45;;;-3.10;99.90;;;;;;5054713;28;20021;-66
2022/12/18 04:11:53;;;;;;;45.50;21.38;;;-3.20;99.90;;;;;;5057656;28;20086;-66
2022/12/18 04:14:20;;;;;;;46.47;20.02;;;-3.20;99.90;;;;;;5046106;28;20025;-66
2022/12/18 04:16:45;;;;;;;53.35;22.00;;;-3.20;99.90;;;;;;5053142;28;20136;-66
2022/12/18 04:19:11;;;;;;;48.80;22.08;;;-3.20;99.90;;;;;;5044100;28;20099;-66
2022/12/18 04:21:36;;;;;;;42.10;19.70;;;-3.20;99.90;;;;;;5053349;28;20047;-65
2022/12/18 04:24:02;;;;;;;46.63;20.00;;;-3.20;99.90;;;;;;5053074;28;20021;-65
2022/12/18 04:26:29;;;;;;;45.60;20.05;;;-3.30;99.90;;;;;;5049830;28;20049;-66
2022/12/18 04:28:54;;;;;;;45.67;18.83;;;-3.30;99.90;;;;;;5052013;28;20071;-66
2022/12/18 04:31:20;;;;;;;46.85;19.80;;;-3.30;99.90;;;;;;5046920;28;20035;-66
2022/12/18 04:33:45;;;;;;;45.13;19.35;;;-3.40;99.90;;;;;;5047415;28;20447;-66
2022/12/18 04:36:12;;;;;;;45.28;19.48;;;-3.30;99.90;;;;;;5036099;28;20028;-65
2022/12/18 04:38:37;;;;;;;44.67;19.52;;;-3.20;99.90;;;;;;5056874;28;20021;-66
2022/12/18 04:41:03;;;;;;;47.40;19.90;;;-3.20;99.90;;;;;;5052338;28;20252;-65
2022/12/18 04:43:29;;;;;;;41.97;20.98;;;-3.20;99.90;;;;;;5047149;28;20079;-66
2022/12/18 04:46:05;;;;;;;43.17;20.15;;;-3.20;99.90;;;;;;5045804;28;20025;-66
2022/12/18 04:48:31;;;;;;;45.10;19.92;;;-3.20;99.90;;;;;;5053004;28;20064;-66
2022/12/18 04:50:56;;;;;;;42.22;20.75;;;-3.20;99.90;;;;;;5033956;28;20045;-66
2022/12/18 04:53:22;;;;;;;44.35;20.02;;;-3.30;99.90;;;;;;5043193;28;20051;-66
2022/12/18 04:55:48;;;;;;;45.80;20.23;;;-3.20;99.90;;;;;;5040790;28;20036;-65
2022/12/18 04:58:13;;;;;;;42.85;20.10;;;-3.30;99.90;;;;;;5043805;28;20100;-65
2022/12/18 05:00:39;;;;;;;41.47;17.85;;;-3.30;99.90;;;;;;5046136;28;20032;-66
2022/12/18 05:03:04;;;;;;;40.33;17.73;;;-3.30;99.90;;;;;;5039070;28;20029;-65
2022/12/18 05:05:30;;;;;;;39.17;18.95;;;-3.30;99.90;;;;;;5045002;28;20033;-65
2022/12/18 05:07:56;;;;;;;40.83;17.50;;;-3.30;99.90;;;;;;5039878;28;20059;-65
2022/12/18 05:10:21;;;;;;;44.88;19.95;;;-3.40;99.90;;;;;;5049353;28;20402;-65
2022/12/18 05:12:59;;;;;;;38.75;18.42;;;-3.40;99.90;;;;;;5045438;28;20167;-65
2022/12/18 05:15:32;;;;;;;44.63;17.67;;;-3.40;99.90;;;;;;5050930;28;20044;-66
2022/12/18 05:17:58;;;;;;;42.53;18.02;;;-3.40;99.90;;;;;;5039968;28;20112;-66
2022/12/18 05:20:24;;;;;;;39.08;17.95;;;-3.40;99.90;;;;;;5035255;28;20513;-66
2022/12/18 05:22:51;;;;;;;37.80;18.25;;;-3.40;99.90;;;;;;5050184;28;20029;-65
2022/12/18 05:25:20;;;;;;;38.70;17.83;;;-3.40;99.90;;;;;;5053673;28;20469;-66
2022/12/18 05:27:46;;;;;;;40.20;16.75;;;-3.50;99.90;;;;;;5040627;28;20037;-65
2022/12/18 05:30:12;;;;;;;37.75;16.73;;;-3.40;99.90;;;;;;5039651;28;20025;-66
2022/12/18 05:32:38;;;;;;;36.40;16.55;;;-3.40;99.90;;;;;;5031865;28;20040;-65
2022/12/18 05:35:05;;;;;;;37.42;17.20;;;-3.50;99.90;;;;;;5053578;28;20025;-66
2022/12/18 05:37:31;;;;;;;39.72;18.30;;;-3.50;99.90;;;;;;5053798;28;20029;-66
2022/12/18 05:39:56;;;;;;;39.45;17.10;;;-3.50;99.90;;;;;;5042824;28;20017;-66
2022/12/18 05:42:22;;;;;;;40.33;17.13;;;-3.50;99.90;;;;;;5048104;28;20033;-66
2022/12/18 05:44:47;;;;;;;40.80;17.48;;;-3.50;99.90;;;;;;5048484;28;20022;-66
2022/12/18 05:47:13;;;;;;;37.65;16.77;;;-3.50;99.90;;;;;;5041159;28;20032;-66
2022/12/18 05:49:39;;;;;;;37.08;16.48;;;-3.50;99.90;;;;;;5053405;28;20204;-66
2022/12/18 05:52:04;;;;;;;37.90;17.10;;;-3.50;99.90;;;;;;5037984;28;20047;-66
2022/12/18 05:54:30;;;;;;;42.97;18.67;;;-3.50;99.90;;;;;;5051688;28;20075;-66
2022/12/18 05:56:57;;;;;;;37.80;17.77;;;-3.50;99.90;;;;;;5047639;28;20061;-66
2022/12/18 05:59:23;;;;;;;35.70;17.27;;;-3.60;99.90;;;;;;5043026;28;20021;-66
2022/12/18 06:01:48;;;;;;;39.50;18.23;;;-3.60;99.90;;;;;;5038985;28;20044;-65
2022/12/18 06:04:14;;;;;;;37.67;16.75;;;-3.70;99.90;;;;;;5049196;28;20021;-66
2022/12/18 06:06:40;;;;;;;38.97;16.20;;;-3.60;99.90;;;;;;5050873;28;20028;-66
2022/12/18 06:09:08;;;;;;;38.88;17.05;;;-3.60;99.90;;;;;;5052312;28;20025;-66
2022/12/18 06:11:34;;;;;;;34.35;15.75;;;-3.60;99.90;;;;;;5040579;28;20033;-66
2022/12/18 06:14:00;;;;;;;40.15;16.70;;;-3.60;99.90;;;;;;5047903;28;20051;-66
2022/12/18 06:16:27;;;;;;;44.50;17.88;;;-3.50;99.90;;;;;;5044326;28;20033;-66
2022/12/18 06:18:55;;;;;;;37.30;16.52;;;-3.60;99.90;;;;;;5046122;28;20073;-66
2022/12/18 06:21:21;;;;;;;38.28;16.08;;;-3.60;99.90;;;;;;5052352;28;20096;-66
2022/12/18 06:23:46;;;;;;;39.70;17.55;;;-3.60;99.90;;;;;;5050450;28;20132;-66
2022/12/18 06:26:13;;;;;;;34.22;17.15;;;-3.60;99.90;;;;;;5052764;28;20033;-66
2022/12/18 06:28:39;;;;;;;41.38;17.92;;;-3.60;99.90;;;;;;5035132;28;20021;-66
2022/12/18 06:31:05;;;;;;;33.10;16.67;;;-3.60;99.90;;;;;;5045360;28;20048;-66
2022/12/18 06:33:30;;;;;;;39.13;17.63;;;-3.60;99.90;;;;;;5036079;28;20033;-66
2022/12/18 06:36:01;;;;;;;35.80;16.38;;;-3.60;99.90;;;;;;5051194;28;20017;-66
2022/12/18 06:38:27;;;;;;;40.78;17.50;;;-3.70;99.90;;;;;;5050458;28;20095;-66
2022/12/18 06:40:53;;;;;;;35.13;16.45;;;-3.70;99.90;;;;;;5040367;28;20432;-66
2022/12/18 06:43:18;;;;;;;39.67;17.55;;;-3.80;99.90;;;;;;5052383;28;20035;-65
2022/12/18 06:45:44;;;;;;;42.63;18.85;;;-3.80;99.90;;;;;;5040671;28;20080;-66
2022/12/18 06:48:09;;;;;;;40.63;18.85;;;-3.90;99.90;;;;;;5047867;28;20512;-65
2022/12/18 06:50:35;;;;;;;36.00;16.58;;;-3.90;99.90;;;;;;5048573;28;20022;-66
2022/12/18 06:53:00;;;;;;;39.85;18.08;;;-3.90;99.90;;;;;;5038176;28;20051;-66
2022/12/18 06:55:26;;;;;;;34.97;16.80;;;-4.00;99.90;;;;;;5042690;28;20045;-66
2022/12/18 06:57:51;;;;;;;46.13;18.63;;;-3.90;99.90;;;;;;5040153;28;20100;-66
2022/12/18 07:00:17;;;;;;;40.95;18.40;;;-4.00;99.90;;;;;;5048254;28;20430;-66
2022/12/18 07:02:43;;;;;;;43.17;19.25;;;-4.00;99.90;;;;;;5048015;28;20021;-66
2022/12/18 07:05:09;;;;;;;44.55;17.05;;;-4.00;99.90;;;;;;5051789;28;20429;-66
2022/12/18 07:07:35;;;;;;;44.97;18.35;;;-4.10;99.90;;;;;;5040812;28;20037;-65
2022/12/18 07:10:00;;;;;;;38.33;17.90;;;-4.00;99.90;;;;;;5046064;28;20104;-66
2022/12/18 07:12:29;;;;;;;37.28;16.30;;;-4.10;99.90;;;;;;5050555;28;20112;-66
2022/12/18 07:14:54;;;;;;;40.08;18.02;;;-4.10;99.90;;;;;;5046092;28;20370;-65
2022/12/18 07:17:20;;;;;;;41.33;18.17;;;-4.00;99.90;;;;;;5049428;28;20040;-65
2022/12/18 07:19:46;;;;;;;38.38;18.52;;;-4.00;99.90;;;;;;5049344;28;20100;-66
2022/12/18 07:22:11;;;;;;;38.08;16.92;;;-4.10;99.90;;;;;;5035121;28;20028;-66
2022/12/18 07:24:37;;;;;;;39.03;17.90;;;-4.00;99.90;;;;;;5031847;28;20040;-66
2022/12/18 07:27:02;;;;;;;40.13;18.65;;;-4.00;99.90;;;;;;5050184;28;20044;-66
2022/12/18 07:29:28;;;;;;;43.08;17.88;;;-4.00;99.90;;;;;;5041178;28;20540;-66
2022/12/18 07:31:54;;;;;;;38.75;17.25;;;-4.00;99.90;;;;;;5045830;28;20032;-66
2022/12/18 07:34:19;;;;;;;37.25;18.85;;;-4.00;99.90;;;;;;5049228;28;20039;-66
2022/12/18 07:36:45;;;;;;;39.58;17.77;;;-4.00;99.90;;;;;;5046455;28;20049;-65
2022/12/18 07:39:11;;;;;;;40.65;18.00;;;-4.00;99.90;;;;;;5033520;28;20355;-66
2022/12/18 07:41:37;;;;;;;34.90;15.82;;;-3.90;99.90;;;;;;5042547;28;20503;-66
2022/12/18 07:44:02;;;;;;;37.75;17.48;;;-4.10;99.90;;;;;;5049100;28;20064;-66
2022/12/18 07:46:28;;;;;;;39.40;18.45;;;-4.10;99.90;;;;;;5049530;28;20056;-66
2022/12/18 07:48:54;;;;;;;43.42;18.08;;;-4.30;99.90;;;;;;5043605;28;20146;-66
2022/12/18 07:51:19;;;;;;;43.28;17.73;;;-4.20;99.90;;;;;;5051496;28;20355;-66
2022/12/18 07:53:45;;;;;;;39.95;18.33;;;-4.10;99.90;;;;;;5030755;28;20511;-65
2022/12/18 07:56:13;;;;;;;43.25;18.45;;;-4.20;99.90;;;;;;5043703;28;20063;-66
2022/12/18 07:58:38;;;;;;;42.83;17.88;;;-4.20;99.90;;;;;;5033239;28;20044;-65
2022/12/18 08:01:06;;;;;;;46.65;20.02;;;-4.10;99.90;;;;;;5044351;28;20021;-66
2022/12/18 08:03:31;;;;;;;42.95;18.35;;;-4.20;99.90;;;;;;5041557;28;20029;-66
2022/12/18 08:06:01;;;;;;;43.22;18.92;;;-4.10;99.90;;;;;;5049094;28;20023;-66
2022/12/18 08:08:27;;;;;;;42.80;19.75;;;-4.10;99.90;;;;;;5029606;28;20094;-66
2022/12/18 08:10:52;;;;;;;42.88;18.75;;;-4.20;99.90;;;;;;5033600;28;20025;-65
2022/12/18 08:13:18;;;;;;;41.08;19.42;;;-4.10;99.90;;;;;;5043245;28;20099;-66
2022/12/18 08:15:44;;;;;;;44.35;20.00;;;-4.10;99.90;;;;;;5037031;28;20037;-66
2022/12/18 08:18:09;;;;;;;42.00;20.42;;;-4.10;99.90;;;;;;5037430;28;20041;-66
2022/12/18 08:20:35;;;;;;;44.80;19.42;;;-4.10;99.90;;;;;;5031134;28;20064;-66
2022/12/18 08:23:00;;;;;;;44.33;20.35;;;-4.00;99.90;;;;;;5041006;28;20429;-65
2022/12/18 08:25:26;;;;;;;47.20;19.70;;;-4.10;99.90;;;;;;5036934;28;20396;-66
2022/12/18 08:27:52;;;;;;;45.60;19.55;;;-4.10;99.90;;;;;;5039147;28;20025;-65
2022/12/18 08:30:17;;;;;;;46.53;21.17;;;-3.90;99.90;;;;;;5037761;28;20040;-66
2022/12/18 08:32:43;;;;;;;46.30;18.45;;;-3.80;99.90;;;;;;5037411;28;20405;-66
2022/12/18 08:35:09;;;;;;;47.13;20.45;;;-3.90;99.90;;;;;;5036450;28;20113;-66
2022/12/18 08:37:34;;;;;;;50.17;20.50;;;-3.80;99.90;;;;;;5035916;28;20104;-66
2022/12/18 08:40:00;;;;;;;41.28;19.40;;;-3.70;99.90;;;;;;5036159;28;20101;-66
2022/12/18 08:45:10;;;;;;;44.28;19.50;;;-3.70;99.90;;;;;;5036241;28;20645;-66
2022/12/18 08:47:36;;;;;;;52.47;20.20;;;-3.70;99.90;;;;;;5044518;28;20104;-66
2022/12/18 08:50:01;;;;;;;49.85;21.38;;;-3.60;99.90;;;;;;5038286;28;20024;-66
2022/12/18 08:52:28;;;;;;;46.67;19.92;;;-3.60;99.90;;;;;;5035590;28;20061;-66
2022/12/18 08:54:53;;;;;;;43.88;19.45;;;-3.60;99.90;;;;;;5039444;28;20087;-66
2022/12/18 08:57:19;;;;;;;49.53;20.55;;;-3.60;99.90;;;;;;5035294;28;20025;-66
2022/12/18 08:59:44;;;;;;;49.88;22.83;;;-3.60;99.90;;;;;;5036307;28;20025;-66
2022/12/18 09:02:11;;;;;;;51.25;22.70;;;-3.50;99.90;;;;;;5036959;28;20087;-66
2022/12/18 09:04:36;;;;;;;50.42;22.35;;;-3.40;99.90;;;;;;5037758;28;20443;-66
2022/12/18 09:07:02;;;;;;;47.40;21.45;;;-3.40;99.90;;;;;;5036188;28;20029;-66
2022/12/18 09:09:28;;;;;;;44.28;21.23;;;-3.30;99.90;;;;;;5037791;28;20026;-66
2022/12/18 09:11:53;;;;;;;49.38;22.02;;;-3.20;99.90;;;;;;5035700;28;20112;-66
2022/12/18 09:14:19;;;;;;;47.17;21.15;;;-3.30;99.90;;;;;;5044353;28;20045;-66
2022/12/18 09:16:44;;;;;;;41.15;18.90;;;-3.20;99.90;;;;;;5036556;28;20032;-66
2022/12/18 09:19:10;;;;;;;46.20;20.35;;;-3.20;99.90;;;;;;5036205;28;20029;-66
2022/12/18 09:21:36;;;;;;;48.42;21.27;;;-3.10;99.90;;;;;;5035095;28;20021;-66
2022/12/18 09:24:02;;;;;;;49.03;20.73;;;-3.10;99.90;;;;;;5038096;28;20526;-66
2022/12/18 09:26:27;;;;;;;43.35;20.15;;;-3.00;99.90;;;;;;5034484;28;20021;-66
2022/12/18 09:28:53;;;;;;;43.90;20.77;;;-3.00;99.90;;;;;;5033526;28;20021;-65
2022/12/18 09:31:21;;;;;;;48.90;20.65;;;-2.90;99.90;;;;;;5042374;28;20385;-66
2022/12/18 09:33:47;;;;;;;48.75;21.70;;;-2.90;99.90;;;;;;5043442;28;20032;-66
2022/12/18 09:36:15;;;;;;;52.05;21.55;;;-2.90;99.90;;;;;;5020775;28;20018;-66
2022/12/18 09:38:41;;;;;;;45.58;21.02;;;-2.90;99.90;;;;;;5047979;28;20541;-66
2022/12/18 09:41:38;;;;;;;41.28;20.90;;;-2.80;99.90;;;;;;5045632;28;20083;-66
2022/12/18 09:44:16;;;;;;;47.55;21.83;;;-2.70;99.90;;;;;;5037941;28;20377;-65
2022/12/18 09:46:52;;;;;;;48.72;22.15;;;-2.70;99.90;;;;;;5042309;28;20030;-66
2022/12/18 09:49:22;;;;;;;49.40;22.05;;;-2.50;99.90;;;;;;5032278;28;20029;-66
2022/12/18 09:52:04;;;;;;;48.90;21.63;;;-2.50;99.90;;;;;;5038915;28;20367;-66
2022/12/18 09:54:34;;;;;;;;;;;-2.50;99.90;;;;;;5048540;28;20119;-66
2022/12/18 09:57:00;;;;;;;47.70;19.42;;;-2.40;99.90;;;;;;5039406;28;19905;-65
2022/12/18 09:59:37;;;;;;;47.72;20.88;;;-2.40;99.90;;;;;;5037814;28;20344;-66
2022/12/18 10:02:21;;;;;;;46.72;21.73;;;-2.30;99.90;;;;;;5044985;28;20132;-65
2022/12/18 10:05:03;;;;;;;51.60;22.58;;;-2.30;99.90;;;;;;5050832;28;20021;-66
2022/12/18 10:08:01;;;;;;;50.13;22.65;;;-2.20;99.90;;;;;;5049675;28;20021;-66
2022/12/18 10:10:45;;;;;;;46.47;21.20;;;-2.20;99.90;;;;;;5042009;28;20036;-66
2022/12/18 10:13:45;;;;;;;48.17;21.98;;;-2.10;99.90;;;;;;5044676;28;20065;-66
2022/12/18 10:16:47;;;;;;;52.97;22.70;;;-2.10;99.90;;;;;;5035547;28;20489;-66
2022/12/18 10:19:30;;;;;;;54.65;23.00;;;-2.00;99.90;;;;;;5028685;28;20025;-66
2022/12/18 10:22:10;;;;;;;47.33;21.27;;;-1.90;99.90;;;;;;5051363;28;20051;-65
2022/12/18 10:24:55;;;;;;;47.15;21.05;;;-1.80;99.90;;;;;;5047788;28;20021;-66
2022/12/18 10:27:26;;;;;;;41.80;19.02;;;-1.80;99.90;;;;;;5043332;28;20490;-66
2022/12/18 10:29:52;;;;;;;47.75;21.13;;;-1.80;99.90;;;;;;5042539;28;20480;-65
2022/12/18 10:32:24;;;;;;;56.53;22.27;;;-1.70;99.90;;;;;;5037811;28;20507;-66
2022/12/18 10:34:52;;;;;;;38.22;16.60;;;-1.60;99.90;;;;;;5052173;28;20021;-66
2022/12/18 10:37:20;;;;;;;48.78;21.85;;;-1.60;99.90;;;;;;5047611;28;20355;-66
2022/12/18 10:40:04;;;;;;;44.17;21.17;;;-1.60;99.90;;;;;;5039320;28;20029;-66
2022/12/18 10:42:29;;;;;;;47.78;21.52;;;-1.40;99.90;;;;;;5047585;28;20021;-66
2022/12/18 10:45:09;;;;;;;48.58;22.27;;;-1.40;99.90;;;;;;5032185;28;20026;-66
2022/12/18 10:47:34;;;;;;;48.25;21.67;;;-1.40;99.90;;;;;;5042286;28;20056;-66
2022/12/18 10:50:01;;;;;;;46.60;20.17;;;-1.30;99.90;;;;;;5040195;28;20478;-66
2022/12/18 10:52:27;;;;;;;46.17;22.10;;;-1.30;99.90;;;;;;5036599;28;20040;-66
2022/12/18 10:54:58;;;;;;;50.17;22.73;;;-1.30;99.90;;;;;;5035687;28;20033;-66
2022/12/18 10:57:38;;;;;;;50.05;23.42;;;-1.20;99.90;;;;;;5033673;28;20025;-66
2022/12/18 11:00:28;;;;;;;44.78;22.30;;;-1.20;99.90;;;;;;5035640;28;20044;-66
2022/12/18 11:02:55;;;;;;;49.33;22.17;;;-1.10;99.90;;;;;;5035692;28;20099;-65
2022/12/18 11:05:30;;;;;;;43.30;21.23;;;-1.10;99.90;;;;;;5030226;28;20304;-66
2022/12/18 11:07:58;;;;;;;51.67;23.98;;;-1.10;99.90;;;;;;5010497;28;20036;-66
2022/12/18 11:10:31;;;;;;;54.55;24.45;;;-1.00;99.90;;;;;;5027690;28;20057;-66
2022/12/18 11:13:19;;;;;;;58.00;25.23;;;-0.90;99.90;;;;;;5026901;28;20504;-67
2022/12/18 11:15:45;;;;;;;50.90;23.83;;;-0.80;99.90;;;;;;5027074;28;20033;-66
2022/12/18 11:18:34;;;;;;;44.65;22.50;;;-0.80;99.90;;;;;;5027326;28;20433;-66
2022/12/18 11:21:07;;;;;;;49.05;24.00;;;-0.80;99.90;;;;;;5027926;28;20022;-66
2022/12/18 11:23:34;;;;;;;52.25;24.95;;;-0.80;99.90;;;;;;5026022;28;20020;-65
2022/12/18 11:26:03;;;;;;;49.47;24.75;;;-0.70;99.90;;;;;;5027563;28;20477;-66
2022/12/18 11:28:43;;;;;;;53.15;24.25;;;-0.70;99.90;;;;;;5028756;28;20021;-66
2022/12/18 11:31:16;;;;;;;44.35;21.83;;;-0.60;99.90;;;;;;5025628;28;20040;-65
2022/12/18 11:34:02;;;;;;;48.53;23.10;;;-0.60;99.90;;;;;;5026818;28;20367;-66
2022/12/18 11:36:33;;;;;;;51.60;24.67;;;-0.60;99.90;;;;;;5025703;28;20163;-66
2022/12/18 11:39:05;;;;;;;46.63;21.35;;;-0.50;99.90;;;;;;5022564;28;20173;-65
2022/12/18 11:42:11;;;;;;;51.85;22.88;;;-0.50;99.90;;;;;;5025708;28;20032;-65
2022/12/18 11:44:58;;;;;;;45.45;22.75;;;-0.40;99.90;;;;;;5004907;28;20051;-66
2022/12/18 11:47:48;;;;;;;45.35;22.25;;;-0.40;99.90;;;;;;5025702;28;20545;-66
2022/12/18 11:50:26;;;;;;;46.08;22.35;;;-0.30;99.90;;;;;;5025845;28;20108;-66
2022/12/18 11:52:52;;;;;;;48.88;22.48;;;-0.30;99.90;;;;;;5025830;28;20065;-65
2022/12/18 11:55:40;;;;;;;47.17;24.88;;;-0.30;99.90;;;;;;5026108;28;20107;-65
2022/12/18 11:58:24;;;;;;;48.63;23.85;;;-0.30;99.90;;;;;;5025456;28;20523;-65
2022/12/18 12:01:00;;;;;;;49.58;25.20;;;-0.20;99.90;;;;;;5031272;28;20068;-66
2022/12/18 12:03:44;;;;;;;48.88;22.15;;;-0.10;99.90;;;;;;5030511;28;20095;-66
2022/12/18 12:06:24;;;;;;;46.85;23.20;;;-0.10;99.90;;;;;;5029137;28;20017;-66
2022/12/18 12:09:18;;;;;;;47.55;21.35;;;-0.10;99.90;;;;;;5031890;28;20104;-66
2022/12/18 12:11:49;;;;;;;43.35;21.08;;;-0.10;99.90;;;;;;5025806;28;20042;-66
2022/12/18 12:14:31;;;;;;;48.15;22.77;;;0.00;99.90;;;;;;5031289;28;20123;-66
2022/12/18 12:17:11;;;;;;;42.30;21.02;;;0.00;99.90;;;;;;5029093;28;20030;-66
2022/12/18 12:19:51;;;;;;;41.65;20.50;;;0.00;99.90;;;;;;5031214;28;20025;-66
2022/12/18 12:22:35;;;;;;;43.63;20.70;;;0.00;99.90;;;;;;5031448;28;20021;-66
2022/12/18 12:25:04;;;;;;;45.00;21.50;;;0.10;99.90;;;;;;5030818;28;20052;-67
2022/12/18 12:27:41;;;;;;;40.10;21.27;;;0.10;99.90;;;;;;5025961;28;20448;-66
2022/12/18 12:30:38;;;;;;;45.42;22.58;;;0.10;99.90;;;;;;5031132;28;20033;-66
2022/12/18 12:33:35;;;;;;;44.00;21.35;;;0.10;99.90;;;;;;5027426;28;20508;-66
2022/12/18 12:36:24;;;;;;;43.92;20.92;;;0.10;99.90;;;;;;5029951;28;20021;-66
2022/12/18 12:39:01;;;;;;;41.75;19.67;;;0.20;99.90;;;;;;5031410;28;20028;-66
2022/12/18 12:44:40;;;;;;;42.90;20.70;;;0.30;99.90;;;;;;5031432;28;20563;-67
2022/12/18 12:47:28;;;;;;;44.15;22.13;;;0.30;99.90;;;;;;5030510;28;20049;-66
2022/12/18 12:49:54;;;;;;;42.08;20.13;;;0.40;99.90;;;;;;5029362;28;20389;-66
2022/12/18 12:52:34;;;;;;;42.28;21.20;;;0.40;99.90;;;;;;5027964;28;20042;-67